Goliah — WDD5908 — position and weather

sailwx.info

Track history (hours):
 
Tides and Currents Weather Stations Pressure Air Temp Water Temp Dewpoint Dewpoint Depression Visibility Wind Speed Wind Dir Waves Ship Positions

Goliah

Owner: Crowley Marine Services, Seattle, WA. More information available from US FCC via Universal Licensing System and Coast Guard Vessel Documentation Center.

Last reported at 2016-Aug-24 20:29 UTC. Time now 2016-Aug-24 21:25 UTC.
Position N 33°44' W 118°17'.

Length 33 m; draft 4.8 m.

Type: Tug. MMSI: 366898250.

Date/timePositionNaut miles runAvg speedWind from/ knotsBaromVisibWave heightAir tempDewpointWater temp
2016-Aug-24 20:29N 33°44' W 118°17'3 3.7
2016-Aug-24 19:33N 33°44' W 118°13'1 0.6
2016-Aug-24 18:04N 33°45' W 118°12'0 0.0
2016-Aug-24 17:33N 33°45' W 118°12'0 0.1
2016-Aug-24 16:33N 33°45' W 118°12'0 0.0
2016-Aug-24 15:33N 33°45' W 118°12'0 0.1
2016-Aug-24 14:33N 33°45' W 118°12'0 0.0
2016-Aug-24 13:33N 33°45' W 118°12'4 3.9
2016-Aug-24 12:33N 33°43' W 118°16'2 2.0
2016-Aug-24 11:33N 33°45' W 118°16'5 4.6
2016-Aug-24 10:33N 33°44' W 118°11'2 2.5
2016-Aug-24 09:33N 33°45' W 118°13'1 1.1
2016-Aug-24 08:33N 33°44' W 118°13'3 2.7
2016-Aug-24 07:33N 33°44' W 118°17'0 0.0
2016-Aug-24 06:32N 33°44' W 118°17'0 0.0
2016-Aug-24 04:33N 33°44' W 118°17'0 0.0
2016-Aug-24 03:28N 33°44' W 118°17'0 0.0
2016-Aug-24 02:30N 33°44' W 118°17'0 0.0
2016-Aug-24 01:33N 33°44' W 118°17'0 0.0
2016-Aug-24 00:33N 33°44' W 118°17'0 0.0
2016-Aug-23 23:33N 33°44' W 118°17'0 0.0
2016-Aug-23 22:31N 33°44' W 118°17'1 1.2
2016-Aug-23 21:33N 33°43' W 118°16'1 0.7
2016-Aug-23 20:33N 33°44' W 118°16'1 0.7
2016-Aug-23 19:33N 33°43' W 118°16'2 1.3
2016-Aug-23 18:15N 33°44' W 118°17'0 0.0
2016-Aug-23 17:33N 33°44' W 118°17'0 0.0
2016-Aug-23 16:33N 33°44' W 118°17'1 0.7
2016-Aug-23 15:33N 33°44' W 118°16'4 3.6
2016-Aug-23 14:33N 33°46' W 118°13'0 0.0
2016-Aug-23 13:22N 33°46' W 118°13'3 3.1
2016-Aug-23 12:31N 33°44' W 118°12'3 3.0
2016-Aug-23 11:32N 33°43' W 118°15'1 0.8
2016-Aug-23 10:33N 33°42' W 118°15'2 2.4
2016-Aug-23 09:33N 33°44' W 118°17'0 0.4
2016-Aug-23 08:33N 33°44' W 118°17'0 0.0
2016-Aug-23 07:33N 33°44' W 118°17'0 0.0
2016-Aug-23 06:33N 33°44' W 118°17'1 1.0
2016-Aug-23 05:33N 33°45' W 118°17'0 0.0
2016-Aug-23 04:33N 33°45' W 118°17'2 2.1
2016-Aug-23 03:33N 33°43' W 118°16'1 1.2
2016-Aug-23 02:34N 33°43' W 118°15'1 1.2
2016-Aug-23 01:33N 33°44' W 118°15'0 0.5
2016-Aug-23 00:33N 33°44' W 118°15'3 2.5
2016-Aug-22 23:34N 33°45' W 118°13'1 1.0
2016-Aug-22 22:33N 33°44' W 118°12'3 2.9
2016-Aug-22 21:33N 33°46' W 118°14'1 1.4
2016-Aug-22 20:33N 33°45' W 118°13'2 1.8
2016-Aug-22 19:33N 33°43' W 118°12'4 4.0
2016-Aug-22 18:32N 33°44' W 118°17'0 0.0
2016-Aug-22 17:33N 33°44' W 118°17'0 0.0
2016-Aug-22 16:33N 33°44' W 118°17'0 0.0
2016-Aug-22 15:33N 33°44' W 118°17'0 0.0
2016-Aug-22 14:33N 33°44' W 118°17'0 0.5
2016-Aug-22 13:33N 33°45' W 118°16'1 0.7
2016-Aug-22 12:33N 33°45' W 118°17'3 3.0
2016-Aug-22 11:34N 33°43' W 118°15'2 2.3
2016-Aug-22 10:33N 33°44' W 118°17'0 0.0
2016-Aug-22 09:33N 33°44' W 118°17'0 0.0
2016-Aug-22 08:33N 33°44' W 118°17'0 0.0
2016-Aug-22 07:33N 33°44' W 118°17'0 0.0
2016-Aug-22 06:33N 33°44' W 118°17'0 0.0
2016-Aug-22 05:33N 33°44' W 118°17'0 0.0
2016-Aug-22 04:33N 33°44' W 118°17'0 0.0
2016-Aug-22 03:33N 33°44' W 118°17'0 0.0
2016-Aug-22 02:33N 33°44' W 118°17'1 1.0
2016-Aug-22 01:33N 33°45' W 118°16'0 0.0
2016-Aug-22 00:33N 33°45' W 118°16'3 3.1
2016-Aug-21 23:33N 33°43' W 118°15'1 1.1
2016-Aug-21 22:33N 33°42' W 118°14'3 3.3
2016-Aug-21 21:33N 33°44' W 118°17'0 0.0
2016-Aug-21 20:33N 33°44' W 118°17'0 0.0
2016-Aug-21 19:33N 33°44' W 118°17'0 0.0
2016-Aug-21 18:33N 33°44' W 118°17'0 0.0
2016-Aug-21 17:33N 33°44' W 118°17'0 0.0
2016-Aug-21 16:33N 33°44' W 118°17'0 0.0
2016-Aug-21 15:33N 33°44' W 118°17'2 1.8
2016-Aug-21 14:33N 33°46' W 118°16'3 2.3
2016-Aug-21 13:28N 33°43' W 118°16'2 2.4
2016-Aug-21 12:33N 33°43' W 118°14'3 2.8
2016-Aug-21 11:31N 33°44' W 118°17'0 0.0
2016-Aug-21 10:33N 33°44' W 118°17'0 0.0
2016-Aug-21 09:33N 33°44' W 118°17'0 0.0
2016-Aug-21 08:33N 33°44' W 118°17'0 0.0
2016-Aug-21 07:33N 33°44' W 118°17'0 0.0
2016-Aug-21 06:33N 33°44' W 118°17'0 0.0
2016-Aug-21 05:33N 33°44' W 118°17'0 0.0
2016-Aug-21 04:33N 33°44' W 118°17'2 2.2
2016-Aug-21 03:33N 33°43' W 118°15'3 2.2
2016-Aug-21 02:20N 33°44' W 118°12'1 1.1
2016-Aug-21 01:33N 33°44' W 118°11'1 1.2
2016-Aug-21 00:33N 33°45' W 118°13'0 0.4
2016-Aug-20 23:33N 33°45' W 118°13'0 0.0
2016-Aug-20 22:33N 33°45' W 118°13'0 0.0
2016-Aug-20 21:32N 33°45' W 118°13'1 1.2
2016-Aug-20 20:26N 33°46' W 118°13'0 0.0
2016-Aug-20 19:33N 33°46' W 118°13'3 2.1
2016-Aug-20 18:18N 33°44' W 118°12'3 4.0
2016-Aug-20 17:33N 33°41' W 118°11'4 4.4
2016-Aug-20 16:33N 33°45' W 118°13'0 0.5
2016-Aug-20 15:33N 33°45' W 118°13'5 4.9
2016-Aug-20 14:29N 33°40' W 118°11'1 1.1
2016-Aug-20 13:33N 33°41' W 118°10'4 3.3
2016-Aug-20 12:30N 33°44' W 118°12'2 1.8
2016-Aug-20 11:33N 33°45' W 118°13'0 0.2
2016-Aug-20 10:20N 33°45' W 118°13'0 0.0
2016-Aug-20 08:10N 33°45' W 118°13'1 2.1
2016-Aug-20 07:34N 33°46' W 118°14'3 3.3
2016-Aug-20 06:33N 33°43' W 118°11'4 1.9
2016-Aug-20 04:13N 33°44' W 118°17'0 0.0
2016-Aug-20 03:31N 33°44' W 118°17'0 0.0
2016-Aug-20 02:33N 33°44' W 118°17'0 0.0
2016-Aug-20 01:33N 33°44' W 118°17'0 0.0
2016-Aug-20 00:33N 33°44' W 118°17'0 0.0
2016-Aug-19 23:33N 33°44' W 118°17'0 0.0
2016-Aug-19 22:33N 33°44' W 118°17'0 0.0
2016-Aug-19 21:33N 33°44' W 118°17'0 0.0
2016-Aug-19 20:33N 33°44' W 118°17'0 0.0
2016-Aug-19 19:33N 33°44' W 118°17'0 0.0
2016-Aug-19 18:33N 33°44' W 118°17'0 0.0
2016-Aug-19 17:33N 33°44' W 118°17'0 0.0
2016-Aug-19 16:33N 33°44' W 118°17'0 0.0
2016-Aug-19 15:33N 33°44' W 118°17'0 0.0
2016-Aug-19 14:33N 33°44' W 118°17'0 0.0
2016-Aug-19 13:33N 33°44' W 118°17'0 0.0
2016-Aug-19 12:33N 33°44' W 118°17'0 0.0
2016-Aug-19 11:33N 33°44' W 118°17'0 0.0
2016-Aug-19 10:33N 33°44' W 118°17'0 0.0
2016-Aug-19 09:33N 33°44' W 118°17'0 0.0
2016-Aug-19 08:33N 33°44' W 118°17'1 1.3
2016-Aug-19 07:33N 33°43' W 118°16'3 3.5
2016-Aug-19 06:33N 33°45' W 118°12'1 0.5
2016-Aug-19 05:32N 33°45' W 118°13'0 0.3
2016-Aug-19 04:33N 33°45' W 118°13'1 0.8
2016-Aug-19 03:33N 33°45' W 118°13'3 2.6
2016-Aug-19 02:33N 33°44' W 118°10'3 2.8
2016-Aug-19 01:33N 33°45' W 118°13'0 0.0
2016-Aug-19 00:33N 33°45' W 118°13'0 0.4
2016-Aug-18 23:33N 33°45' W 118°12'0 0.4
2016-Aug-18 22:33N 33°45' W 118°13'0 0.0
2016-Aug-18 21:33N 33°45' W 118°13'1 1.1
2016-Aug-18 20:33N 33°44' W 118°13'3 3.2
2016-Aug-18 19:33N 33°44' W 118°17'0 0.0
2016-Aug-18 18:33N 33°44' W 118°17'0 0.0
2016-Aug-18 17:33N 33°44' W 118°17'0 0.0
2016-Aug-18 16:32N 33°44' W 118°17'3 2.8
2016-Aug-18 15:30N 33°43' W 118°13'1 1.6
2016-Aug-18 14:33N 33°45' W 118°13'0 0.4
2016-Aug-18 13:33N 33°44' W 118°12'1 0.8
2016-Aug-18 12:33N 33°45' W 118°13'0 0.5
2016-Aug-18 11:34N 33°45' W 118°13'1 0.6
2016-Aug-18 10:33N 33°45' W 118°13'2 1.6
2016-Aug-18 09:33N 33°43' W 118°14'3 2.9
2016-Aug-18 08:33N 33°44' W 118°17'0 0.0
2016-Aug-18 07:33N 33°44' W 118°17'0 0.0
2016-Aug-18 06:27N 33°44' W 118°17'0 0.0
2016-Aug-18 05:33N 33°44' W 118°17'0 0.0
2016-Aug-18 04:32N 33°44' W 118°17'0 0.0
2016-Aug-18 03:17N 33°44' W 118°17'0 0.0
2016-Aug-18 02:05N 33°44' W 118°17'0 0.0
2016-Aug-18 01:33N 33°44' W 118°17'0 0.4
2016-Aug-18 00:33N 33°45' W 118°16'2 2.5
2016-Aug-17 23:33N 33°43' W 118°15'1 0.9
2016-Aug-17 22:34N 33°43' W 118°14'2 1.7
2016-Aug-17 21:23N 33°45' W 118°12'1 0.9
2016-Aug-17 20:33N 33°44' W 118°13'3 3.0
2016-Aug-17 19:33N 33°44' W 118°17'0 0.0
2016-Aug-17 18:33N 33°44' W 118°17'0 0.0
2016-Aug-17 17:33N 33°44' W 118°17'0 0.3
2016-Aug-17 16:33N 33°45' W 118°17'1 1.4
2016-Aug-17 15:33N 33°43' W 118°16'3 3.3
2016-Aug-17 14:33N 33°44' W 118°12'1 1.4
2016-Aug-17 13:33N 33°44' W 118°11'1 1.3
2016-Aug-17 12:33N 33°44' W 118°12'3 2.5
2016-Aug-17 11:33N 33°46' W 118°13'3 2.9
2016-Aug-17 10:34N 33°44' W 118°12'1 1.2
2016-Aug-17 09:33N 33°43' W 118°11'3 2.9
2016-Aug-17 08:33N 33°43' W 118°15'3 2.8
2016-Aug-17 07:28N 33°45' W 118°17'1 1.2
2016-Aug-17 06:33N 33°44' W 118°17'4 3.7
2016-Aug-17 05:33N 33°41' W 118°15'4 3.8
2016-Aug-17 04:26N 33°45' W 118°13'2 2.6
2016-Aug-17 03:33N 33°43' W 118°11'1 1.2
2016-Aug-17 02:33N 33°44' W 118°12'1 1.2
2016-Aug-17 01:33N 33°45' W 118°13'0 0.0
2016-Aug-17 00:33N 33°45' W 118°13'0 0.0
2016-Aug-16 23:33N 33°45' W 118°13'0 0.0
2016-Aug-16 22:33N 33°45' W 118°13'0 0.0
2016-Aug-16 21:33N 33°45' W 118°13'1 1.3
2016-Aug-16 20:34N 33°44' W 118°12'1 1.4
2016-Aug-16 19:33N 33°45' W 118°13'0 0.4
2016-Aug-16 18:33N 33°45' W 118°13'0 0.3
2016-Aug-16 17:33N 33°45' W 118°13'3 3.2
2016-Aug-16 16:33N 33°44' W 118°16'1 0.7
2016-Aug-16 15:33N 33°44' W 118°17'0 0.0
2016-Aug-16 14:33N 33°44' W 118°17'0 0.0
2016-Aug-16 13:33N 33°44' W 118°17'1 1.3
2016-Aug-16 12:33N 33°46' W 118°16'2 2.0
2016-Aug-16 11:33N 33°44' W 118°16'2 1.6
2016-Aug-16 10:34N 33°45' W 118°16'1 0.9
2016-Aug-16 09:33N 33°44' W 118°17'0 0.0
2016-Aug-16 08:22N 33°44' W 118°17'0 0.0
2016-Aug-16 07:33N 33°44' W 118°17'4 1.2
2016-Aug-16 04:33N 33°44' W 118°12'1 0.6
2016-Aug-16 03:33N 33°45' W 118°12'0 0.4
2016-Aug-16 02:33N 33°45' W 118°13'0 0.2
2016-Aug-16 01:33N 33°45' W 118°13'1 1.5
2016-Aug-16 00:33N 33°46' W 118°13'3 3.2
2016-Aug-15 23:33N 33°44' W 118°15'1 1.3
2016-Aug-15 22:34N 33°43' W 118°15'2 2.4
2016-Aug-15 21:33N 33°45' W 118°13'1 0.7
2016-Aug-15 20:33N 33°45' W 118°13'2 2.0
2016-Aug-15 19:33N 33°44' W 118°12'0 0.3
2016-Aug-15 18:30N 33°43' W 118°12'4 4.3
2016-Aug-15 17:33N 33°44' W 118°17'0 0.0
2016-Aug-15 16:28N 33°44' W 118°17'0 0.0
2016-Aug-15 15:30N 33°44' W 118°17'1 1.4
2016-Aug-15 14:33N 33°43' W 118°16'3 3.4
2016-Aug-15 13:33N 33°45' W 118°13'2 2.0
2016-Aug-15 12:34N 33°43' W 118°11'3 3.0
2016-Aug-15 11:33N 33°45' W 118°14'0 0.5
2016-Aug-15 10:33N 33°45' W 118°13'3 2.7
2016-Aug-15 09:34N 33°44' W 118°17'0 0.0
2016-Aug-15 08:33N 33°44' W 118°17'0 0.0
2016-Aug-15 07:33N 33°44' W 118°17'0 0.0
2016-Aug-15 06:33N 33°44' W 118°17'0 0.0
2016-Aug-15 04:03N 33°44' W 118°17'0 0.0
2016-Aug-15 02:33N 33°44' W 118°17'3 2.9
2016-Aug-15 01:33N 33°45' W 118°13'0 0.3
2016-Aug-15 00:33N 33°45' W 118°13'0 0.0
2016-Aug-14 23:33N 33°45' W 118°13'1 0.7
2016-Aug-14 22:34N 33°44' W 118°12'1 1.2
2016-Aug-14 21:33N 33°43' W 118°13'3 3.3
2016-Aug-14 20:33N 33°44' W 118°17'  
Track history (hours):
 
Tides and Currents Weather Stations Pressure Air Temp Water Temp Dewpoint Dewpoint Depression Visibility Wind Speed Wind Dir Waves Ship Positions

Goliah

Owner: Crowley Marine Services, Seattle, WA. More information available from US FCC via Universal Licensing System and Coast Guard Vessel Documentation Center.

Last reported at 2016-Aug-24 20:29 UTC. Time now 2016-Aug-24 21:25 UTC.
Position N 33°44' W 118°17'.

Length 33 m; draft 4.8 m.

Type: Tug. MMSI: 366898250.

Date/timePositionNaut miles runAvg speedWind from/ knotsBaromVisibWave heightAir tempDewpointWater temp
2016-Aug-24 20:29N 33°44' W 118°17'3 3.7
2016-Aug-24 19:33N 33°44' W 118°13'1 0.6
2016-Aug-24 18:04N 33°45' W 118°12'0 0.0
2016-Aug-24 17:33N 33°45' W 118°12'0 0.1
2016-Aug-24 16:33N 33°45' W 118°12'0 0.0
2016-Aug-24 15:33N 33°45' W 118°12'0 0.1
2016-Aug-24 14:33N 33°45' W 118°12'0 0.0
2016-Aug-24 13:33N 33°45' W 118°12'4 3.9
2016-Aug-24 12:33N 33°43' W 118°16'2 2.0
2016-Aug-24 11:33N 33°45' W 118°16'5 4.6
2016-Aug-24 10:33N 33°44' W 118°11'2 2.5
2016-Aug-24 09:33N 33°45' W 118°13'1 1.1
2016-Aug-24 08:33N 33°44' W 118°13'3 2.7
2016-Aug-24 07:33N 33°44' W 118°17'0 0.0
2016-Aug-24 06:32N 33°44' W 118°17'0 0.0
2016-Aug-24 04:33N 33°44' W 118°17'0 0.0
2016-Aug-24 03:28N 33°44' W 118°17'0 0.0
2016-Aug-24 02:30N 33°44' W 118°17'0 0.0
2016-Aug-24 01:33N 33°44' W 118°17'0 0.0
2016-Aug-24 00:33N 33°44' W 118°17'0 0.0
2016-Aug-23 23:33N 33°44' W 118°17'0 0.0
2016-Aug-23 22:31N 33°44' W 118°17'1 1.2
2016-Aug-23 21:33N 33°43' W 118°16'1 0.7
2016-Aug-23 20:33N 33°44' W 118°16'1 0.7
2016-Aug-23 19:33N 33°43' W 118°16'2 1.3
2016-Aug-23 18:15N 33°44' W 118°17'0 0.0
2016-Aug-23 17:33N 33°44' W 118°17'0 0.0
2016-Aug-23 16:33N 33°44' W 118°17'1 0.7
2016-Aug-23 15:33N 33°44' W 118°16'4 3.6
2016-Aug-23 14:33N 33°46' W 118°13'0 0.0
2016-Aug-23 13:22N 33°46' W 118°13'3 3.1
2016-Aug-23 12:31N 33°44' W 118°12'3 3.0
2016-Aug-23 11:32N 33°43' W 118°15'1 0.8
2016-Aug-23 10:33N 33°42' W 118°15'2 2.4
2016-Aug-23 09:33N 33°44' W 118°17'0 0.4
2016-Aug-23 08:33N 33°44' W 118°17'0 0.0
2016-Aug-23 07:33N 33°44' W 118°17'0 0.0
2016-Aug-23 06:33N 33°44' W 118°17'1 1.0
2016-Aug-23 05:33N 33°45' W 118°17'0 0.0
2016-Aug-23 04:33N 33°45' W 118°17'2 2.1
2016-Aug-23 03:33N 33°43' W 118°16'1 1.2
2016-Aug-23 02:34N 33°43' W 118°15'1 1.2
2016-Aug-23 01:33N 33°44' W 118°15'0 0.5
2016-Aug-23 00:33N 33°44' W 118°15'3 2.5
2016-Aug-22 23:34N 33°45' W 118°13'1 1.0
2016-Aug-22 22:33N 33°44' W 118°12'3 2.9
2016-Aug-22 21:33N 33°46' W 118°14'1 1.4
2016-Aug-22 20:33N 33°45' W 118°13'2 1.8
2016-Aug-22 19:33N 33°43' W 118°12'4 4.0
2016-Aug-22 18:32N 33°44' W 118°17'0 0.0
2016-Aug-22 17:33N 33°44' W 118°17'0 0.0
2016-Aug-22 16:33N 33°44' W 118°17'0 0.0
2016-Aug-22 15:33N 33°44' W 118°17'0 0.0
2016-Aug-22 14:33N 33°44' W 118°17'0 0.5
2016-Aug-22 13:33N 33°45' W 118°16'1 0.7
2016-Aug-22 12:33N 33°45' W 118°17'3 3.0
2016-Aug-22 11:34N 33°43' W 118°15'2 2.3
2016-Aug-22 10:33N 33°44' W 118°17'0 0.0
2016-Aug-22 09:33N 33°44' W 118°17'0 0.0
2016-Aug-22 08:33N 33°44' W 118°17'0 0.0
2016-Aug-22 07:33N 33°44' W 118°17'0 0.0
2016-Aug-22 06:33N 33°44' W 118°17'0 0.0
2016-Aug-22 05:33N 33°44' W 118°17'0 0.0
2016-Aug-22 04:33N 33°44' W 118°17'0 0.0
2016-Aug-22 03:33N 33°44' W 118°17'0 0.0
2016-Aug-22 02:33N 33°44' W 118°17'1 1.0
2016-Aug-22 01:33N 33°45' W 118°16'0 0.0
2016-Aug-22 00:33N 33°45' W 118°16'3 3.1
2016-Aug-21 23:33N 33°43' W 118°15'1 1.1
2016-Aug-21 22:33N 33°42' W 118°14'3 3.3
2016-Aug-21 21:33N 33°44' W 118°17'0 0.0
2016-Aug-21 20:33N 33°44' W 118°17'0 0.0
2016-Aug-21 19:33N 33°44' W 118°17'0 0.0
2016-Aug-21 18:33N 33°44' W 118°17'0 0.0
2016-Aug-21 17:33N 33°44' W 118°17'0 0.0
2016-Aug-21 16:33N 33°44' W 118°17'0 0.0
2016-Aug-21 15:33N 33°44' W 118°17'2 1.8
2016-Aug-21 14:33N 33°46' W 118°16'3 2.3
2016-Aug-21 13:28N 33°43' W 118°16'2 2.4
2016-Aug-21 12:33N 33°43' W 118°14'3 2.8
2016-Aug-21 11:31N 33°44' W 118°17'0 0.0
2016-Aug-21 10:33N 33°44' W 118°17'0 0.0
2016-Aug-21 09:33N 33°44' W 118°17'0 0.0
2016-Aug-21 08:33N 33°44' W 118°17'0 0.0
2016-Aug-21 07:33N 33°44' W 118°17'0 0.0
2016-Aug-21 06:33N 33°44' W 118°17'0 0.0
2016-Aug-21 05:33N 33°44' W 118°17'0 0.0
2016-Aug-21 04:33N 33°44' W 118°17'2 2.2
2016-Aug-21 03:33N 33°43' W 118°15'3 2.2
2016-Aug-21 02:20N 33°44' W 118°12'1 1.1
2016-Aug-21 01:33N 33°44' W 118°11'1 1.2
2016-Aug-21 00:33N 33°45' W 118°13'0 0.4
2016-Aug-20 23:33N 33°45' W 118°13'0 0.0
2016-Aug-20 22:33N 33°45' W 118°13'0 0.0
2016-Aug-20 21:32N 33°45' W 118°13'1 1.2
2016-Aug-20 20:26N 33°46' W 118°13'0 0.0
2016-Aug-20 19:33N 33°46' W 118°13'3 2.1
2016-Aug-20 18:18N 33°44' W 118°12'3 4.0
2016-Aug-20 17:33N 33°41' W 118°11'4 4.4
2016-Aug-20 16:33N 33°45' W 118°13'0 0.5
2016-Aug-20 15:33N 33°45' W 118°13'5 4.9
2016-Aug-20 14:29N 33°40' W 118°11'1 1.1
2016-Aug-20 13:33N 33°41' W 118°10'4 3.3
2016-Aug-20 12:30N 33°44' W 118°12'2 1.8
2016-Aug-20 11:33N 33°45' W 118°13'0 0.2
2016-Aug-20 10:20N 33°45' W 118°13'0 0.0
2016-Aug-20 08:10N 33°45' W 118°13'1 2.1
2016-Aug-20 07:34N 33°46' W 118°14'3 3.3
2016-Aug-20 06:33N 33°43' W 118°11'4 1.9
2016-Aug-20 04:13N 33°44' W 118°17'0 0.0
2016-Aug-20 03:31N 33°44' W 118°17'0 0.0
2016-Aug-20 02:33N 33°44' W 118°17'0 0.0
2016-Aug-20 01:33N 33°44' W 118°17'0 0.0
2016-Aug-20 00:33N 33°44' W 118°17'0 0.0
2016-Aug-19 23:33N 33°44' W 118°17'0 0.0
2016-Aug-19 22:33N 33°44' W 118°17'0 0.0
2016-Aug-19 21:33N 33°44' W 118°17'0 0.0
2016-Aug-19 20:33N 33°44' W 118°17'0 0.0
2016-Aug-19 19:33N 33°44' W 118°17'0 0.0
2016-Aug-19 18:33N 33°44' W 118°17'0 0.0
2016-Aug-19 17:33N 33°44' W 118°17'0 0.0
2016-Aug-19 16:33N 33°44' W 118°17'0 0.0
2016-Aug-19 15:33N 33°44' W 118°17'0 0.0
2016-Aug-19 14:33N 33°44' W 118°17'0 0.0
2016-Aug-19 13:33N 33°44' W 118°17'0 0.0
2016-Aug-19 12:33N 33°44' W 118°17'0 0.0
2016-Aug-19 11:33N 33°44' W 118°17'0 0.0
2016-Aug-19 10:33N 33°44' W 118°17'0 0.0
2016-Aug-19 09:33N 33°44' W 118°17'0 0.0
2016-Aug-19 08:33N 33°44' W 118°17'1 1.3
2016-Aug-19 07:33N 33°43' W 118°16'3 3.5
2016-Aug-19 06:33N 33°45' W 118°12'1 0.5
2016-Aug-19 05:32N 33°45' W 118°13'0 0.3
2016-Aug-19 04:33N 33°45' W 118°13'1 0.8
2016-Aug-19 03:33N 33°45' W 118°13'3 2.6
2016-Aug-19 02:33N 33°44' W 118°10'3 2.8
2016-Aug-19 01:33N 33°45' W 118°13'0 0.0
2016-Aug-19 00:33N 33°45' W 118°13'0 0.4
2016-Aug-18 23:33N 33°45' W 118°12'0 0.4
2016-Aug-18 22:33N 33°45' W 118°13'0 0.0
2016-Aug-18 21:33N 33°45' W 118°13'1 1.1
2016-Aug-18 20:33N 33°44' W 118°13'3 3.2
2016-Aug-18 19:33N 33°44' W 118°17'0 0.0
2016-Aug-18 18:33N 33°44' W 118°17'0 0.0
2016-Aug-18 17:33N 33°44' W 118°17'0 0.0
2016-Aug-18 16:32N 33°44' W 118°17'3 2.8
2016-Aug-18 15:30N 33°43' W 118°13'1 1.6
2016-Aug-18 14:33N 33°45' W 118°13'0 0.4
2016-Aug-18 13:33N 33°44' W 118°12'1 0.8
2016-Aug-18 12:33N 33°45' W 118°13'0 0.5
2016-Aug-18 11:34N 33°45' W 118°13'1 0.6
2016-Aug-18 10:33N 33°45' W 118°13'2 1.6
2016-Aug-18 09:33N 33°43' W 118°14'3 2.9
2016-Aug-18 08:33N 33°44' W 118°17'0 0.0
2016-Aug-18 07:33N 33°44' W 118°17'0 0.0
2016-Aug-18 06:27N 33°44' W 118°17'0 0.0
2016-Aug-18 05:33N 33°44' W 118°17'0 0.0
2016-Aug-18 04:32N 33°44' W 118°17'0 0.0
2016-Aug-18 03:17N 33°44' W 118°17'0 0.0
2016-Aug-18 02:05N 33°44' W 118°17'0 0.0
2016-Aug-18 01:33N 33°44' W 118°17'0 0.4
2016-Aug-18 00:33N 33°45' W 118°16'2 2.5
2016-Aug-17 23:33N 33°43' W 118°15'1 0.9
2016-Aug-17 22:34N 33°43' W 118°14'2 1.7
2016-Aug-17 21:23N 33°45' W 118°12'1 0.9
2016-Aug-17 20:33N 33°44' W 118°13'3 3.0
2016-Aug-17 19:33N 33°44' W 118°17'0 0.0
2016-Aug-17 18:33N 33°44' W 118°17'0 0.0
2016-Aug-17 17:33N 33°44' W 118°17'0 0.3
2016-Aug-17 16:33N 33°45' W 118°17'1 1.4
2016-Aug-17 15:33N 33°43' W 118°16'3 3.3
2016-Aug-17 14:33N 33°44' W 118°12'1 1.4
2016-Aug-17 13:33N 33°44' W 118°11'1 1.3
2016-Aug-17 12:33N 33°44' W 118°12'3 2.5
2016-Aug-17 11:33N 33°46' W 118°13'3 2.9
2016-Aug-17 10:34N 33°44' W 118°12'1 1.2
2016-Aug-17 09:33N 33°43' W 118°11'3 2.9
2016-Aug-17 08:33N 33°43' W 118°15'3 2.8
2016-Aug-17 07:28N 33°45' W 118°17'1 1.2
2016-Aug-17 06:33N 33°44' W 118°17'4 3.7
2016-Aug-17 05:33N 33°41' W 118°15'4 3.8
2016-Aug-17 04:26N 33°45' W 118°13'2 2.6
2016-Aug-17 03:33N 33°43' W 118°11'1 1.2
2016-Aug-17 02:33N 33°44' W 118°12'1 1.2
2016-Aug-17 01:33N 33°45' W 118°13'0 0.0
2016-Aug-17 00:33N 33°45' W 118°13'0 0.0
2016-Aug-16 23:33N 33°45' W 118°13'0 0.0
2016-Aug-16 22:33N 33°45' W 118°13'0 0.0
2016-Aug-16 21:33N 33°45' W 118°13'1 1.3
2016-Aug-16 20:34N 33°44' W 118°12'1 1.4
2016-Aug-16 19:33N 33°45' W 118°13'0 0.4
2016-Aug-16 18:33N 33°45' W 118°13'0 0.3
2016-Aug-16 17:33N 33°45' W 118°13'3 3.2
2016-Aug-16 16:33N 33°44' W 118°16'1 0.7
2016-Aug-16 15:33N 33°44' W 118°17'0 0.0
2016-Aug-16 14:33N 33°44' W 118°17'0 0.0
2016-Aug-16 13:33N 33°44' W 118°17'1 1.3
2016-Aug-16 12:33N 33°46' W 118°16'2 2.0
2016-Aug-16 11:33N 33°44' W 118°16'2 1.6
2016-Aug-16 10:34N 33°45' W 118°16'1 0.9
2016-Aug-16 09:33N 33°44' W 118°17'0 0.0
2016-Aug-16 08:22N 33°44' W 118°17'0 0.0
2016-Aug-16 07:33N 33°44' W 118°17'4 1.2
2016-Aug-16 04:33N 33°44' W 118°12'1 0.6
2016-Aug-16 03:33N 33°45' W 118°12'0 0.4
2016-Aug-16 02:33N 33°45' W 118°13'0 0.2
2016-Aug-16 01:33N 33°45' W 118°13'1 1.5
2016-Aug-16 00:33N 33°46' W 118°13'3 3.2
2016-Aug-15 23:33N 33°44' W 118°15'1 1.3
2016-Aug-15 22:34N 33°43' W 118°15'2 2.4
2016-Aug-15 21:33N 33°45' W 118°13'1 0.7
2016-Aug-15 20:33N 33°45' W 118°13'2 2.0
2016-Aug-15 19:33N 33°44' W 118°12'0 0.3
2016-Aug-15 18:30N 33°43' W 118°12'4 4.3
2016-Aug-15 17:33N 33°44' W 118°17'0 0.0
2016-Aug-15 16:28N 33°44' W 118°17'0 0.0
2016-Aug-15 15:30N 33°44' W 118°17'1 1.4
2016-Aug-15 14:33N 33°43' W 118°16'3 3.4
2016-Aug-15 13:33N 33°45' W 118°13'2 2.0
2016-Aug-15 12:34N 33°43' W 118°11'3 3.0
2016-Aug-15 11:33N 33°45' W 118°14'0 0.5
2016-Aug-15 10:33N 33°45' W 118°13'3 2.7
2016-Aug-15 09:34N 33°44' W 118°17'0 0.0
2016-Aug-15 08:33N 33°44' W 118°17'0 0.0
2016-Aug-15 07:33N 33°44' W 118°17'0 0.0
2016-Aug-15 06:33N 33°44' W 118°17'0 0.0
2016-Aug-15 04:03N 33°44' W 118°17'0 0.0
2016-Aug-15 02:33N 33°44' W 118°17'3 2.9
2016-Aug-15 01:33N 33°45' W 118°13'0 0.3
2016-Aug-15 00:33N 33°45' W 118°13'0 0.0
2016-Aug-14 23:33N 33°45' W 118°13'1 0.7
2016-Aug-14 22:34N 33°44' W 118°12'1 1.2
2016-Aug-14 21:33N 33°43' W 118°13'3 3.3
2016-Aug-14 20:33N 33°44' W 118°17'  

Dump ship's entire track history